sensor_id;sensor_type;location;lat;lon;timestamp;P1;durP1;ratioP1;P2;durP2;ratioP2
15498;SDS011;7851;52.260;6.030;2023-06-19T00:06:48;6.6;;;5;;
15498;SDS011;7851;52.260;6.030;2023-06-19T00:06:48;5.8;;;5.3;;
15498;SDS011;7851;52.260;6.030;2023-06-19T00:06:48;6;;;5.3;;
15498;SDS011;7851;52.260;6.030;2023-06-19T00:07:18;7.1;;;5.3;;
15498;SDS011;7851;52.260;6.030;2023-06-19T00:08:18;5.9;;;5.4;;
15498;SDS011;7851;52.260;6.030;2023-06-19T00:09:18;6.8;;;5.6;;
15498;SDS011;7851;52.260;6.030;2023-06-19T00:10:18;5.5;;;5;;
15498;SDS011;7851;52.260;6.030;2023-06-19T00:11:18;5.6;;;5;;
15498;SDS011;7851;52.260;6.030;2023-06-19T00:12:18;5.8;;;5.2;;
15498;SDS011;7851;52.260;6.030;2023-06-19T00:13:18;6.1;;;5.2;;
15498;SDS011;7851;52.260;6.030;2023-06-19T00:14:18;8.8;;;6.2;;
15498;SDS011;7851;52.260;6.030;2023-06-19T00:15:18;7.4;;;5.4;;
15498;SDS011;7851;52.260;6.030;2023-06-19T00:16:18;6.6;;;5.4;;
15498;SDS011;7851;52.260;6.030;2023-06-19T00:17:18;5.8;;;5.3;;
15498;SDS011;7851;52.260;6.030;2023-06-19T00:18:18;5;;;4.6;;
15498;SDS011;7851;52.260;6.030;2023-06-19T00:19:18;7.1;;;5.6;;
15498;SDS011;7851;52.260;6.030;2023-06-19T00:20:18;5.8;;;5.2;;
15498;SDS011;7851;52.260;6.030;2023-06-19T00:21:18;6.2;;;5.7;;
15498;SDS011;7851;52.260;6.030;2023-06-19T00:22:18;5.7;;;5.3;;
15498;SDS011;7851;52.260;6.030;2023-06-19T00:23:18;6.4;;;5.7;;
15498;SDS011;7851;52.260;6.030;2023-06-19T00:24:18;6.1;;;5.5;;
15498;SDS011;7851;52.260;6.030;2023-06-19T00:25:18;6;;;5.4;;
15498;SDS011;7851;52.260;6.030;2023-06-19T00:26:18;6.5;;;5.8;;
15498;SDS011;7851;52.260;6.030;2023-06-19T00:27:18;5.6;;;5.1;;
15498;SDS011;7851;52.260;6.030;2023-06-19T00:28:18;6.5;;;5.8;;
15498;SDS011;7851;52.260;6.030;2023-06-19T00:29:18;6.7;;;5.8;;
15498;SDS011;7851;52.260;6.030;2023-06-19T00:30:18;5.9;;;5.4;;
15498;SDS011;7851;52.260;6.030;2023-06-19T00:31:18;6.6;;;5.9;;
15498;SDS011;7851;52.260;6.030;2023-06-19T00:32:18;6.8;;;5.8;;
15498;SDS011;7851;52.260;6.030;2023-06-19T00:33:18;5.5;;;5.1;;
15498;SDS011;7851;52.260;6.030;2023-06-19T00:34:18;6.2;;;5.6;;
15498;SDS011;7851;52.260;6.030;2023-06-19T00:35:18;6.1;;;5.6;;
15498;SDS011;7851;52.260;6.030;2023-06-19T00:36:18;6;;;5.5;;
15498;SDS011;7851;52.260;6.030;2023-06-19T00:37:18;6.1;;;5.5;;
15498;SDS011;7851;52.260;6.030;2023-06-19T00:38:18;5.7;;;5.2;;
15498;SDS011;7851;52.260;6.030;2023-06-19T00:39:18;5.7;;;5.2;;
15498;SDS011;7851;52.260;6.030;2023-06-19T00:40:21;6.3;;;5.7;;
15498;SDS011;7851;52.260;6.030;2023-06-19T00:41:18;6.3;;;5.2;;
15498;SDS011;7851;52.260;6.030;2023-06-19T00:42:18;6.6;;;6;;
15498;SDS011;7851;52.260;6.030;2023-06-19T00:43:18;6.2;;;5.5;;
15498;SDS011;7851;52.260;6.030;2023-06-19T00:44:18;6.5;;;5.8;;
15498;SDS011;7851;52.260;6.030;2023-06-19T00:45:18;6.6;;;5.8;;
15498;SDS011;7851;52.260;6.030;2023-06-19T00:46:18;5.5;;;5.1;;
15498;SDS011;7851;52.260;6.030;2023-06-19T00:47:18;7.6;;;5.6;;
15498;SDS011;7851;52.260;6.030;2023-06-19T00:48:18;6.7;;;5.9;;
15498;SDS011;7851;52.260;6.030;2023-06-19T00:49:18;6.6;;;5.5;;
15498;SDS011;7851;52.260;6.030;2023-06-19T00:50:18;6.3;;;5.5;;
15498;SDS011;7851;52.260;6.030;2023-06-19T00:51:18;6.4;;;5.4;;
15498;SDS011;7851;52.260;6.030;2023-06-19T00:52:18;7.6;;;5.7;;
15498;SDS011;7851;52.260;6.030;2023-06-19T00:53:18;6.2;;;5.3;;
15498;SDS011;7851;52.260;6.030;2023-06-19T00:54:18;6.5;;;5.4;;
15498;SDS011;7851;52.260;6.030;2023-06-19T00:55:18;6.2;;;5.6;;
15498;SDS011;7851;52.260;6.030;2023-06-19T00:56:18;8.1;;;6;;
15498;SDS011;7851;52.260;6.030;2023-06-19T00:57:18;8;;;5.4;;
15498;SDS011;7851;52.260;6.030;2023-06-19T00:58:18;7.2;;;5.9;;
15498;SDS011;7851;52.260;6.030;2023-06-19T00:59:19;6.2;;;5.6;;
15498;SDS011;7851;52.260;6.030;2023-06-19T01:00:18;9.7;;;5.9;;
15498;SDS011;7851;52.260;6.030;2023-06-19T01:01:19;7.7;;;5.7;;
15498;SDS011;7851;52.260;6.030;2023-06-19T01:02:19;6.5;;;5.8;;
15498;SDS011;7851;52.260;6.030;2023-06-19T01:03:18;7.5;;;5.6;;
15498;SDS011;7851;52.260;6.030;2023-06-19T01:04:18;6.2;;;5.5;;
15498;SDS011;7851;52.260;6.030;2023-06-19T01:05:18;5.4;;;4.9;;
15498;SDS011;7851;52.260;6.030;2023-06-19T01:06:20;5.4;;;4.9;;
15498;SDS011;7851;52.260;6.030;2023-06-19T01:07:19;5.5;;;5;;
15498;SDS011;7851;52.260;6.030;2023-06-19T01:08:21;8.3;;;5.6;;
15498;SDS011;7851;52.260;6.030;2023-06-19T01:09:18;5.7;;;5.2;;
15498;SDS011;7851;52.260;6.030;2023-06-19T01:10:18;10.6;;;5.8;;
15498;SDS011;7851;52.260;6.030;2023-06-19T01:11:19;5.6;;;5.1;;
15498;SDS011;7851;52.260;6.030;2023-06-19T01:12:19;7.1;;;5.3;;
15498;SDS011;7851;52.260;6.030;2023-06-19T01:13:19;6.1;;;5.5;;
15498;SDS011;7851;52.260;6.030;2023-06-19T01:14:19;6.9;;;5.5;;
15498;SDS011;7851;52.260;6.030;2023-06-19T01:15:18;8.3;;;5;;
15498;SDS011;7851;52.260;6.030;2023-06-19T01:16:18;5.6;;;5.1;;
15498;SDS011;7851;52.260;6.030;2023-06-19T01:17:18;8;;;5.7;;
15498;SDS011;7851;52.260;6.030;2023-06-19T01:18:18;14.2;;;6;;
15498;SDS011;7851;52.260;6.030;2023-06-19T01:19:19;5.7;;;5.2;;
15498;SDS011;7851;52.260;6.030;2023-06-19T01:20:18;6.2;;;5.6;;
15498;SDS011;7851;52.260;6.030;2023-06-19T01:21:18;6.2;;;5.3;;
15498;SDS011;7851;52.260;6.030;2023-06-19T01:22:26;7.1;;;5.2;;
15498;SDS011;7851;52.260;6.030;2023-06-19T01:23:18;10.1;;;5.2;;
15498;SDS011;7851;52.260;6.030;2023-06-19T01:24:18;5.9;;;5.3;;
15498;SDS011;7851;52.260;6.030;2023-06-19T01:25:18;5.6;;;5.1;;
15498;SDS011;7851;52.260;6.030;2023-06-19T01:26:19;5.2;;;4.8;;
15498;SDS011;7851;52.260;6.030;2023-06-19T01:27:18;5.4;;;4.9;;
15498;SDS011;7851;52.260;6.030;2023-06-19T01:28:18;5.7;;;5.2;;
15498;SDS011;7851;52.260;6.030;2023-06-19T01:29:18;5.7;;;5.2;;
15498;SDS011;7851;52.260;6.030;2023-06-19T01:30:18;5.4;;;4.8;;
15498;SDS011;7851;52.260;6.030;2023-06-19T01:31:20;6.6;;;5.5;;
15498;SDS011;7851;52.260;6.030;2023-06-19T01:32:18;5.7;;;4.9;;
15498;SDS011;7851;52.260;6.030;2023-06-19T01:33:19;6.1;;;5.3;;
15498;SDS011;7851;52.260;6.030;2023-06-19T01:34:18;5.7;;;5.1;;
15498;SDS011;7851;52.260;6.030;2023-06-19T01:35:19;5.2;;;4.8;;
15498;SDS011;7851;52.260;6.030;2023-06-19T01:36:18;5;;;4.6;;
15498;SDS011;7851;52.260;6.030;2023-06-19T01:37:18;5.4;;;4.9;;
15498;SDS011;7851;52.260;6.030;2023-06-19T01:38:18;5.2;;;4.6;;
15498;SDS011;7851;52.260;6.030;2023-06-19T01:39:18;5.8;;;4.8;;
15498;SDS011;7851;52.260;6.030;2023-06-19T01:40:18;4.9;;;4.4;;
15498;SDS011;7851;52.260;6.030;2023-06-19T01:41:18;5.3;;;4.8;;
15498;SDS011;7851;52.260;6.030;2023-06-19T01:42:18;4.8;;;4.4;;
15498;SDS011;7851;52.260;6.030;2023-06-19T01:43:18;4.8;;;4.4;;
15498;SDS011;7851;52.260;6.030;2023-06-19T01:44:18;5;;;4.5;;
15498;SDS011;7851;52.260;6.030;2023-06-19T01:45:18;4.8;;;4.4;;
15498;SDS011;7851;52.260;6.030;2023-06-19T01:46:18;4.9;;;4.4;;
15498;SDS011;7851;52.260;6.030;2023-06-19T01:47:18;7.7;;;4.4;;
15498;SDS011;7851;52.260;6.030;2023-06-19T01:48:18;6.5;;;4.2;;
15498;SDS011;7851;52.260;6.030;2023-06-19T01:49:18;5.2;;;3.9;;
15498;SDS011;7851;52.260;6.030;2023-06-19T01:50:18;4.7;;;4.2;;
15498;SDS011;7851;52.260;6.030;2023-06-19T01:51:18;4.8;;;4.1;;
15498;SDS011;7851;52.260;6.030;2023-06-19T01:52:18;6.5;;;4.2;;
15498;SDS011;7851;52.260;6.030;2023-06-19T01:53:18;4.9;;;4.1;;
15498;SDS011;7851;52.260;6.030;2023-06-19T01:54:18;7;;;4.2;;
15498;SDS011;7851;52.260;6.030;2023-06-19T01:55:18;5.1;;;3.9;;
15498;SDS011;7851;52.260;6.030;2023-06-19T01:56:18;4.8;;;3.5;;
15498;SDS011;7851;52.260;6.030;2023-06-19T01:57:18;4.2;;;3.8;;
15498;SDS011;7851;52.260;6.030;2023-06-19T01:58:18;4.3;;;3.9;;
15498;SDS011;7851;52.260;6.030;2023-06-19T01:59:18;4.1;;;3.6;;
15498;SDS011;7851;52.260;6.030;2023-06-19T02:00:18;3.7;;;3.4;;
15498;SDS011;7851;52.260;6.030;2023-06-19T02:01:18;4.8;;;3.7;;
15498;SDS011;7851;52.260;6.030;2023-06-19T02:02:18;6;;;4;;
15498;SDS011;7851;52.260;6.030;2023-06-19T02:03:18;3.6;;;3.3;;
15498;SDS011;7851;52.260;6.030;2023-06-19T02:04:18;4.2;;;3.9;;
15498;SDS011;7851;52.260;6.030;2023-06-19T02:05:18;3.9;;;3.6;;
15498;SDS011;7851;52.260;6.030;2023-06-19T02:06:18;4.2;;;3.8;;
15498;SDS011;7851;52.260;6.030;2023-06-19T02:07:18;4.3;;;3.6;;
15498;SDS011;7851;52.260;6.030;2023-06-19T02:08:18;3.4;;;2.9;;
15498;SDS011;7851;52.260;6.030;2023-06-19T02:09:18;3.8;;;3.4;;
15498;SDS011;7851;52.260;6.030;2023-06-19T02:10:18;3.7;;;3.4;;
15498;SDS011;7851;52.260;6.030;2023-06-19T02:11:18;3.1;;;2.8;;
15498;SDS011;7851;52.260;6.030;2023-06-19T02:12:18;4;;;3.4;;
15498;SDS011;7851;52.260;6.030;2023-06-19T02:13:18;3.2;;;3;;
15498;SDS011;7851;52.260;6.030;2023-06-19T02:14:18;4.9;;;3.3;;
15498;SDS011;7851;52.260;6.030;2023-06-19T02:15:18;3.3;;;3.1;;
15498;SDS011;7851;52.260;6.030;2023-06-19T02:16:18;3.7;;;3.2;;
15498;SDS011;7851;52.260;6.030;2023-06-19T02:17:18;2.9;;;2.7;;
15498;SDS011;7851;52.260;6.030;2023-06-19T02:18:18;3.1;;;2.9;;
15498;SDS011;7851;52.260;6.030;2023-06-19T02:19:18;7.7;;;3.4;;
15498;SDS011;7851;52.260;6.030;2023-06-19T02:20:18;4.8;;;3;;
15498;SDS011;7851;52.260;6.030;2023-06-19T02:21:18;4;;;3.1;;
15498;SDS011;7851;52.260;6.030;2023-06-19T02:22:18;3.2;;;2.9;;
15498;SDS011;7851;52.260;6.030;2023-06-19T02:23:18;3.1;;;2.8;;
15498;SDS011;7851;52.260;6.030;2023-06-19T02:24:18;4.3;;;3;;
15498;SDS011;7851;52.260;6.030;2023-06-19T02:25:18;3;;;2.7;;
15498;SDS011;7851;52.260;6.030;2023-06-19T02:26:18;3.5;;;2.6;;
15498;SDS011;7851;52.260;6.030;2023-06-19T02:27:18;3.5;;;3;;
15498;SDS011;7851;52.260;6.030;2023-06-19T02:28:18;3.9;;;3.1;;
15498;SDS011;7851;52.260;6.030;2023-06-19T02:29:18;3.6;;;3.3;;
15498;SDS011;7851;52.260;6.030;2023-06-19T02:30:18;4;;;2.9;;
15498;SDS011;7851;52.260;6.030;2023-06-19T02:31:18;3;;;2.8;;
15498;SDS011;7851;52.260;6.030;2023-06-19T02:32:18;3.4;;;3.1;;
15498;SDS011;7851;52.260;6.030;2023-06-19T02:33:18;4.9;;;2.8;;
15498;SDS011;7851;52.260;6.030;2023-06-19T02:34:18;3.2;;;2.9;;
15498;SDS011;7851;52.260;6.030;2023-06-19T02:35:18;3.6;;;2.8;;
15498;SDS011;7851;52.260;6.030;2023-06-19T02:36:18;3.3;;;3;;
15498;SDS011;7851;52.260;6.030;2023-06-19T02:37:18;4.7;;;2.9;;
15498;SDS011;7851;52.260;6.030;2023-06-19T02:38:18;3;;;2.7;;
15498;SDS011;7851;52.260;6.030;2023-06-19T02:39:18;2.8;;;2.6;;
15498;SDS011;7851;52.260;6.030;2023-06-19T02:40:18;3.4;;;2.7;;
15498;SDS011;7851;52.260;6.030;2023-06-19T02:41:18;4.6;;;2.7;;
15498;SDS011;7851;52.260;6.030;2023-06-19T02:42:18;2.8;;;2.6;;
15498;SDS011;7851;52.260;6.030;2023-06-19T02:43:18;2.4;;;2.3;;
15498;SDS011;7851;52.260;6.030;2023-06-19T02:44:18;2.8;;;2.6;;
15498;SDS011;7851;52.260;6.030;2023-06-19T02:45:18;3.3;;;2.6;;
15498;SDS011;7851;52.260;6.030;2023-06-19T02:46:18;3.3;;;2.7;;
15498;SDS011;7851;52.260;6.030;2023-06-19T02:47:18;2.7;;;2.5;;
15498;SDS011;7851;52.260;6.030;2023-06-19T02:48:18;3.4;;;3.1;;
15498;SDS011;7851;52.260;6.030;2023-06-19T02:49:18;2.7;;;2.5;;
15498;SDS011;7851;52.260;6.030;2023-06-19T02:50:18;4;;;2.7;;
15498;SDS011;7851;52.260;6.030;2023-06-19T02:51:18;2.8;;;2.6;;
15498;SDS011;7851;52.260;6.030;2023-06-19T02:52:18;2.9;;;2.6;;
15498;SDS011;7851;52.260;6.030;2023-06-19T02:53:18;2.5;;;2.3;;
15498;SDS011;7851;52.260;6.030;2023-06-19T02:54:18;4.2;;;2.7;;
15498;SDS011;7851;52.260;6.030;2023-06-19T02:55:18;2.8;;;2.4;;
15498;SDS011;7851;52.260;6.030;2023-06-19T02:56:18;2.8;;;2.6;;
15498;SDS011;7851;52.260;6.030;2023-06-19T02:57:18;3;;;2.8;;
15498;SDS011;7851;52.260;6.030;2023-06-19T02:58:18;3;;;2.7;;
15498;SDS011;7851;52.260;6.030;2023-06-19T02:59:18;3.4;;;3;;
15498;SDS011;7851;52.260;6.030;2023-06-19T03:00:18;3;;;2.6;;
15498;SDS011;7851;52.260;6.030;2023-06-19T03:01:18;3;;;2.8;;
15498;SDS011;7851;52.260;6.030;2023-06-19T03:02:18;2.6;;;2.4;;
15498;SDS011;7851;52.260;6.030;2023-06-19T03:03:18;4.4;;;2.8;;
15498;SDS011;7851;52.260;6.030;2023-06-19T03:04:18;2.7;;;2.5;;
15498;SDS011;7851;52.260;6.030;2023-06-19T03:05:18;3.1;;;2.8;;
15498;SDS011;7851;52.260;6.030;2023-06-19T03:06:18;2.9;;;2.7;;
15498;SDS011;7851;52.260;6.030;2023-06-19T03:07:18;3.3;;;2.6;;
15498;SDS011;7851;52.260;6.030;2023-06-19T03:08:18;6.6;;;2.3;;
15498;SDS011;7851;52.260;6.030;2023-06-19T03:09:18;2.6;;;2.5;;
15498;SDS011;7851;52.260;6.030;2023-06-19T03:10:18;3.1;;;2.8;;
15498;SDS011;7851;52.260;6.030;2023-06-19T03:11:18;2.6;;;2.4;;
15498;SDS011;7851;52.260;6.030;2023-06-19T03:12:18;3.3;;;3;;
15498;SDS011;7851;52.260;6.030;2023-06-19T03:13:18;3;;;2.7;;
15498;SDS011;7851;52.260;6.030;2023-06-19T03:14:18;2.7;;;2.5;;
15498;SDS011;7851;52.260;6.030;2023-06-19T03:15:18;3.2;;;2.9;;
15498;SDS011;7851;52.260;6.030;2023-06-19T03:16:18;3.2;;;2.8;;
15498;SDS011;7851;52.260;6.030;2023-06-19T03:17:18;3;;;2.7;;
15498;SDS011;7851;52.260;6.030;2023-06-19T03:18:18;3.1;;;2.6;;
15498;SDS011;7851;52.260;6.030;2023-06-19T03:19:18;2.8;;;2.6;;
15498;SDS011;7851;52.260;6.030;2023-06-19T03:20:18;4;;;3;;
15498;SDS011;7851;52.260;6.030;2023-06-19T03:21:18;3;;;2.7;;
15498;SDS011;7851;52.260;6.030;2023-06-19T03:22:19;3.3;;;3;;
15498;SDS011;7851;52.260;6.030;2023-06-19T03:23:18;4.8;;;2.8;;
15498;SDS011;7851;52.260;6.030;2023-06-19T03:24:18;4.1;;;2.7;;
15498;SDS011;7851;52.260;6.030;2023-06-19T03:25:18;2.8;;;2.6;;
15498;SDS011;7851;52.260;6.030;2023-06-19T03:26:18;2.6;;;2.4;;
15498;SDS011;7851;52.260;6.030;2023-06-19T03:27:18;3;;;2.7;;
15498;SDS011;7851;52.260;6.030;2023-06-19T03:28:18;3;;;2.8;;
15498;SDS011;7851;52.260;6.030;2023-06-19T03:29:18;3.4;;;2.8;;
15498;SDS011;7851;52.260;6.030;2023-06-19T03:30:18;2.9;;;2.7;;
15498;SDS011;7851;52.260;6.030;2023-06-19T03:31:18;2.8;;;2.6;;
15498;SDS011;7851;52.260;6.030;2023-06-19T03:32:18;3.5;;;2.7;;
15498;SDS011;7851;52.260;6.030;2023-06-19T03:33:18;3;;;2.8;;
15498;SDS011;7851;52.260;6.030;2023-06-19T03:34:18;2.9;;;2.7;;
15498;SDS011;7851;52.260;6.030;2023-06-19T03:35:18;3;;;2.7;;
15498;SDS011;7851;52.260;6.030;2023-06-19T03:36:18;3.6;;;3;;
15498;SDS011;7851;52.260;6.030;2023-06-19T03:37:18;5.7;;;2.9;;
15498;SDS011;7851;52.260;6.030;2023-06-19T03:38:18;3.5;;;2.9;;
15498;SDS011;7851;52.260;6.030;2023-06-19T03:39:18;3.2;;;2.9;;
15498;SDS011;7851;52.260;6.030;2023-06-19T03:40:18;2.9;;;2.7;;
15498;SDS011;7851;52.260;6.030;2023-06-19T03:41:18;2.8;;;2.6;;
15498;SDS011;7851;52.260;6.030;2023-06-19T03:42:18;3.7;;;2.5;;
15498;SDS011;7851;52.260;6.030;2023-06-19T03:43:18;2.8;;;2.6;;
15498;SDS011;7851;52.260;6.030;2023-06-19T03:44:18;2.9;;;2.7;;
15498;SDS011;7851;52.260;6.030;2023-06-19T03:45:18;3.2;;;2.9;;
15498;SDS011;7851;52.260;6.030;2023-06-19T03:46:18;3.2;;;3;;
15498;SDS011;7851;52.260;6.030;2023-06-19T03:47:18;2.7;;;2.5;;
15498;SDS011;7851;52.260;6.030;2023-06-19T03:48:18;2.5;;;2.4;;
15498;SDS011;7851;52.260;6.030;2023-06-19T03:49:18;2.9;;;2.7;;
15498;SDS011;7851;52.260;6.030;2023-06-19T03:50:18;3.7;;;2.7;;
15498;SDS011;7851;52.260;6.030;2023-06-19T03:51:18;2.7;;;2.6;;
15498;SDS011;7851;52.260;6.030;2023-06-19T03:52:18;2.6;;;2.5;;
15498;SDS011;7851;52.260;6.030;2023-06-19T03:53:18;3.1;;;2.9;;
15498;SDS011;7851;52.260;6.030;2023-06-19T03:54:18;3.1;;;2.9;;
15498;SDS011;7851;52.260;6.030;2023-06-19T03:55:18;2.9;;;2.7;;
15498;SDS011;7851;52.260;6.030;2023-06-19T03:56:18;3.1;;;2.5;;
15498;SDS011;7851;52.260;6.030;2023-06-19T03:57:18;2.5;;;2.4;;
15498;SDS011;7851;52.260;6.030;2023-06-19T03:58:18;15.4;;;3.3;;
15498;SDS011;7851;52.260;6.030;2023-06-19T03:59:18;4.4;;;2.9;;
15498;SDS011;7851;52.260;6.030;2023-06-19T04:00:18;5;;;2.8;;
15498;SDS011;7851;52.260;6.030;2023-06-19T04:01:18;3.4;;;3.2;;
15498;SDS011;7851;52.260;6.030;2023-06-19T04:02:18;3;;;2.8;;
15498;SDS011;7851;52.260;6.030;2023-06-19T04:03:18;3.4;;;2.4;;
15498;SDS011;7851;52.260;6.030;2023-06-19T04:04:18;3;;;2.8;;
15498;SDS011;7851;52.260;6.030;2023-06-19T04:05:18;2.4;;;2.2;;
15498;SDS011;7851;52.260;6.030;2023-06-19T04:06:18;2.5;;;2.4;;
15498;SDS011;7851;52.260;6.030;2023-06-19T04:07:18;3;;;2.8;;
15498;SDS011;7851;52.260;6.030;2023-06-19T04:08:18;2.9;;;2.6;;
15498;SDS011;7851;52.260;6.030;2023-06-19T04:09:18;3.3;;;2.7;;
15498;SDS011;7851;52.260;6.030;2023-06-19T04:10:18;3;;;2.8;;
15498;SDS011;7851;52.260;6.030;2023-06-19T04:11:18;8.3;;;3.2;;
15498;SDS011;7851;52.260;6.030;2023-06-19T04:12:18;3;;;2.7;;
15498;SDS011;7851;52.260;6.030;2023-06-19T04:13:18;3.2;;;2.9;;
15498;SDS011;7851;52.260;6.030;2023-06-19T04:14:18;4.5;;;3.2;;
15498;SDS011;7851;52.260;6.030;2023-06-19T04:15:18;2.9;;;2.4;;
15498;SDS011;7851;52.260;6.030;2023-06-19T04:16:18;2.9;;;2.7;;
15498;SDS011;7851;52.260;6.030;2023-06-19T04:17:18;5.2;;;2.8;;
15498;SDS011;7851;52.260;6.030;2023-06-19T04:18:18;2.6;;;2.4;;
15498;SDS011;7851;52.260;6.030;2023-06-19T04:19:18;6.1;;;2.6;;
15498;SDS011;7851;52.260;6.030;2023-06-19T04:20:18;3.9;;;2.8;;
15498;SDS011;7851;52.260;6.030;2023-06-19T04:21:18;4.2;;;2.6;;
15498;SDS011;7851;52.260;6.030;2023-06-19T04:22:18;2.5;;;2.4;;
15498;SDS011;7851;52.260;6.030;2023-06-19T04:23:18;2.8;;;2.6;;
15498;SDS011;7851;52.260;6.030;2023-06-19T04:24:18;2.6;;;2.4;;
15498;SDS011;7851;52.260;6.030;2023-06-19T04:25:18;2.7;;;2.4;;
15498;SDS011;7851;52.260;6.030;2023-06-19T04:26:18;3.1;;;2.8;;
15498;SDS011;7851;52.260;6.030;2023-06-19T04:27:18;2.3;;;2.2;;
15498;SDS011;7851;52.260;6.030;2023-06-19T04:28:18;2.5;;;2.3;;
15498;SDS011;7851;52.260;6.030;2023-06-19T04:29:18;2.6;;;2.4;;
15498;SDS011;7851;52.260;6.030;2023-06-19T04:30:18;2.5;;;2.3;;
15498;SDS011;7851;52.260;6.030;2023-06-19T04:31:18;2.4;;;2.3;;
15498;SDS011;7851;52.260;6.030;2023-06-19T04:32:18;2.6;;;2.4;;
15498;SDS011;7851;52.260;6.030;2023-06-19T04:33:18;3.1;;;2.9;;
15498;SDS011;7851;52.260;6.030;2023-06-19T04:34:18;3.8;;;2.6;;
15498;SDS011;7851;52.260;6.030;2023-06-19T04:35:18;2.7;;;2.5;;
15498;SDS011;7851;52.260;6.030;2023-06-19T04:36:18;2.9;;;2.7;;
15498;SDS011;7851;52.260;6.030;2023-06-19T04:37:18;2.6;;;2.4;;
15498;SDS011;7851;52.260;6.030;2023-06-19T04:38:18;3.1;;;2.9;;
15498;SDS011;7851;52.260;6.030;2023-06-19T04:39:18;2.8;;;2.5;;
15498;SDS011;7851;52.260;6.030;2023-06-19T04:40:18;2.5;;;2.4;;
15498;SDS011;7851;52.260;6.030;2023-06-19T04:41:18;3;;;2.7;;
15498;SDS011;7851;52.260;6.030;2023-06-19T04:42:18;2.8;;;2.7;;
15498;SDS011;7851;52.260;6.030;2023-06-19T04:43:18;2.6;;;2.5;;
15498;SDS011;7851;52.260;6.030;2023-06-19T04:44:18;2.9;;;2.7;;
15498;SDS011;7851;52.260;6.030;2023-06-19T04:45:18;3.1;;;2.8;;
15498;SDS011;7851;52.260;6.030;2023-06-19T04:46:18;2.6;;;2.5;;
15498;SDS011;7851;52.260;6.030;2023-06-19T04:47:19;2.9;;;2.7;;
15498;SDS011;7851;52.260;6.030;2023-06-19T04:48:18;2.9;;;2.7;;
15498;SDS011;7851;52.260;6.030;2023-06-19T04:49:18;3.1;;;2.9;;
15498;SDS011;7851;52.260;6.030;2023-06-19T04:50:18;2.6;;;2.4;;
15498;SDS011;7851;52.260;6.030;2023-06-19T04:51:18;2.7;;;2.6;;
15498;SDS011;7851;52.260;6.030;2023-06-19T04:52:18;2.9;;;2.7;;
15498;SDS011;7851;52.260;6.030;2023-06-19T04:53:18;3;;;2.9;;
15498;SDS011;7851;52.260;6.030;2023-06-19T04:54:18;3;;;2.8;;
15498;SDS011;7851;52.260;6.030;2023-06-19T04:55:18;2.7;;;2.6;;
15498;SDS011;7851;52.260;6.030;2023-06-19T04:56:18;3.9;;;3.2;;
15498;SDS011;7851;52.260;6.030;2023-06-19T04:57:18;3.3;;;3.1;;
15498;SDS011;7851;52.260;6.030;2023-06-19T04:58:18;3.2;;;2.9;;
15498;SDS011;7851;52.260;6.030;2023-06-19T04:59:18;3.2;;;3;;
15498;SDS011;7851;52.260;6.030;2023-06-19T05:00:18;2.9;;;2.7;;
15498;SDS011;7851;52.260;6.030;2023-06-19T05:01:18;3;;;2.8;;
15498;SDS011;7851;52.260;6.030;2023-06-19T05:02:18;3;;;2.8;;
15498;SDS011;7851;52.260;6.030;2023-06-19T05:03:18;2.7;;;2.6;;
15498;SDS011;7851;52.260;6.030;2023-06-19T05:04:18;2.7;;;2.6;;
15498;SDS011;7851;52.260;6.030;2023-06-19T05:05:18;3.2;;;3;;
15498;SDS011;7851;52.260;6.030;2023-06-19T05:06:18;4.3;;;2.8;;
15498;SDS011;7851;52.260;6.030;2023-06-19T05:07:18;3;;;2.8;;
15498;SDS011;7851;52.260;6.030;2023-06-19T05:08:18;2.8;;;2.6;;
15498;SDS011;7851;52.260;6.030;2023-06-19T05:09:18;4.6;;;2.8;;
15498;SDS011;7851;52.260;6.030;2023-06-19T05:10:18;2.5;;;2.4;;
15498;SDS011;7851;52.260;6.030;2023-06-19T05:11:18;3.1;;;2.9;;
15498;SDS011;7851;52.260;6.030;2023-06-19T05:12:18;3.2;;;3;;
15498;SDS011;7851;52.260;6.030;2023-06-19T05:13:18;3.6;;;3.3;;
15498;SDS011;7851;52.260;6.030;2023-06-19T05:14:18;3;;;2.9;;
15498;SDS011;7851;52.260;6.030;2023-06-19T05:15:18;3.6;;;3.3;;
15498;SDS011;7851;52.260;6.030;2023-06-19T05:16:18;3.2;;;2.9;;
15498;SDS011;7851;52.260;6.030;2023-06-19T05:17:18;4.9;;;3.2;;
15498;SDS011;7851;52.260;6.030;2023-06-19T05:18:18;3.4;;;2.9;;
15498;SDS011;7851;52.260;6.030;2023-06-19T05:19:18;2.9;;;2.7;;
15498;SDS011;7851;52.260;6.030;2023-06-19T05:20:18;3.5;;;3.3;;
15498;SDS011;7851;52.260;6.030;2023-06-19T05:21:18;3.3;;;3;;
15498;SDS011;7851;52.260;6.030;2023-06-19T05:22:18;3.5;;;3.3;;
15498;SDS011;7851;52.260;6.030;2023-06-19T05:23:18;3.9;;;3.5;;
15498;SDS011;7851;52.260;6.030;2023-06-19T05:24:18;3.7;;;3.4;;
15498;SDS011;7851;52.260;6.030;2023-06-19T05:25:18;3.2;;;3;;
15498;SDS011;7851;52.260;6.030;2023-06-19T05:26:18;3.9;;;3.4;;
15498;SDS011;7851;52.260;6.030;2023-06-19T05:27:18;3.8;;;3.5;;
15498;SDS011;7851;52.260;6.030;2023-06-19T05:28:18;5.6;;;3.4;;
15498;SDS011;7851;52.260;6.030;2023-06-19T05:29:18;3.3;;;3.1;;
15498;SDS011;7851;52.260;6.030;2023-06-19T05:30:18;3.2;;;3;;
15498;SDS011;7851;52.260;6.030;2023-06-19T05:31:18;3.5;;;3.3;;
15498;SDS011;7851;52.260;6.030;2023-06-19T05:32:18;4;;;3.6;;
15498;SDS011;7851;52.260;6.030;2023-06-19T05:33:18;3.2;;;3;;
15498;SDS011;7851;52.260;6.030;2023-06-19T05:34:18;3.5;;;3.2;;
15498;SDS011;7851;52.260;6.030;2023-06-19T05:35:18;3.8;;;3.5;;
15498;SDS011;7851;52.260;6.030;2023-06-19T05:36:18;3.4;;;3.2;;
15498;SDS011;7851;52.260;6.030;2023-06-19T05:37:18;3.5;;;3.2;;
15498;SDS011;7851;52.260;6.030;2023-06-19T05:38:18;3.5;;;3.2;;
15498;SDS011;7851;52.260;6.030;2023-06-19T05:39:18;3.3;;;3.1;;
15498;SDS011;7851;52.260;6.030;2023-06-19T05:40:18;3.7;;;3.2;;
15498;SDS011;7851;52.260;6.030;2023-06-19T05:41:18;3.9;;;3.6;;
15498;SDS011;7851;52.260;6.030;2023-06-19T05:42:18;3.3;;;3.1;;
15498;SDS011;7851;52.260;6.030;2023-06-19T05:43:18;4;;;3.6;;
15498;SDS011;7851;52.260;6.030;2023-06-19T05:44:18;4.1;;;3.8;;
15498;SDS011;7851;52.260;6.030;2023-06-19T05:45:18;4.6;;;3.6;;
15498;SDS011;7851;52.260;6.030;2023-06-19T05:46:18;4.1;;;3.8;;
15498;SDS011;7851;52.260;6.030;2023-06-19T05:47:18;5.1;;;3.8;;
15498;SDS011;7851;52.260;6.030;2023-06-19T05:48:18;4.1;;;3.8;;
15498;SDS011;7851;52.260;6.030;2023-06-19T05:49:18;3.6;;;3.3;;
15498;SDS011;7851;52.260;6.030;2023-06-19T05:50:18;3.9;;;3.6;;
15498;SDS011;7851;52.260;6.030;2023-06-19T05:51:18;4.2;;;3.5;;
15498;SDS011;7851;52.260;6.030;2023-06-19T05:52:18;3.8;;;3.5;;
15498;SDS011;7851;52.260;6.030;2023-06-19T05:53:18;3.8;;;3.5;;
15498;SDS011;7851;52.260;6.030;2023-06-19T05:54:18;4.4;;;4;;
15498;SDS011;7851;52.260;6.030;2023-06-19T05:55:18;4.5;;;4.1;;
15498;SDS011;7851;52.260;6.030;2023-06-19T05:56:18;4.9;;;4.5;;
15498;SDS011;7851;52.260;6.030;2023-06-19T05:57:18;5.6;;;4.9;;
15498;SDS011;7851;52.260;6.030;2023-06-19T05:58:18;5.2;;;4.8;;
15498;SDS011;7851;52.260;6.030;2023-06-19T05:59:18;5;;;4.6;;
15498;SDS011;7851;52.260;6.030;2023-06-19T06:00:18;4.9;;;4.5;;
15498;SDS011;7851;52.260;6.030;2023-06-19T06:01:18;5.4;;;5;;
15498;SDS011;7851;52.260;6.030;2023-06-19T06:02:20;4.9;;;4.5;;
15498;SDS011;7851;52.260;6.030;2023-06-19T06:03:18;11;;;10.1;;
15498;SDS011;7851;52.260;6.030;2023-06-19T06:04:18;14.9;;;13.8;;
15498;SDS011;7851;52.260;6.030;2023-06-19T06:05:18;19.8;;;17.8;;
15498;SDS011;7851;52.260;6.030;2023-06-19T06:06:18;19.2;;;17.9;;
15498;SDS011;7851;52.260;6.030;2023-06-19T06:07:18;17.6;;;16.3;;
15498;SDS011;7851;52.260;6.030;2023-06-19T06:08:18;16.2;;;15;;
15498;SDS011;7851;52.260;6.030;2023-06-19T06:09:18;15.4;;;14.2;;
15498;SDS011;7851;52.260;6.030;2023-06-19T06:10:19;13.9;;;12.9;;
15498;SDS011;7851;52.260;6.030;2023-06-19T06:11:18;13.8;;;12.6;;
15498;SDS011;7851;52.260;6.030;2023-06-19T06:12:18;15.6;;;14.4;;
15498;SDS011;7851;52.260;6.030;2023-06-19T06:13:18;19;;;17.4;;
15498;SDS011;7851;52.260;6.030;2023-06-19T06:14:18;19.1;;;17.8;;
15498;SDS011;7851;52.260;6.030;2023-06-19T06:15:18;19.6;;;18.1;;
15498;SDS011;7851;52.260;6.030;2023-06-19T06:16:18;16.6;;;15.3;;
15498;SDS011;7851;52.260;6.030;2023-06-19T06:17:18;16.1;;;14.7;;
15498;SDS011;7851;52.260;6.030;2023-06-19T06:18:18;17.2;;;16;;
15498;SDS011;7851;52.260;6.030;2023-06-19T06:19:19;19.8;;;18.2;;
15498;SDS011;7851;52.260;6.030;2023-06-19T06:20:18;19.7;;;18.4;;
15498;SDS011;7851;52.260;6.030;2023-06-19T06:21:18;18.5;;;17.1;;
15498;SDS011;7851;52.260;6.030;2023-06-19T06:22:18;21.3;;;19.7;;
15498;SDS011;7851;52.260;6.030;2023-06-19T06:23:18;21.8;;;20.2;;
15498;SDS011;7851;52.260;6.030;2023-06-19T06:24:18;21.1;;;19.6;;